createdAt,value
2019-05-21T00:00:43.538Z,10.41
2019-05-21T00:01:43.662Z,10.41
2019-05-21T00:02:44.081Z,10.45
2019-05-21T00:03:44.255Z,10.49
2019-05-21T00:04:44.959Z,10.45
2019-05-21T00:05:44.928Z,10.39
2019-05-21T00:06:45.413Z,10.39
2019-05-21T00:07:45.861Z,10.55
2019-05-21T00:08:46.256Z,10.57
2019-05-21T00:09:46.667Z,10.51
2019-05-21T00:10:47.072Z,10.51
2019-05-21T00:11:47.541Z,10.53
2019-05-21T00:12:48.258Z,10.61
2019-05-21T00:13:48.380Z,10.61
2019-05-21T00:14:48.563Z,10.64
2019-05-21T00:15:48.803Z,10.65
2019-05-21T00:16:49.193Z,10.72
2019-05-21T00:17:49.898Z,10.55
2019-05-21T00:18:50.889Z,10.65
2019-05-21T00:19:51.583Z,10.68
2019-05-21T00:20:51.984Z,10.65
2019-05-21T00:21:52.422Z,10.68
2019-05-21T00:22:52.811Z,10.68
2019-05-21T00:23:53.517Z,10.69
2019-05-21T00:24:54.567Z,10.75
2019-05-21T00:25:54.881Z,10.75
2019-05-21T00:26:55.330Z,10.75
2019-05-21T00:27:56.079Z,10.72
2019-05-21T00:28:56.814Z,10.79
2019-05-21T00:29:56.931Z,10.77
2019-05-21T00:30:57.390Z,10.79
2019-05-21T00:31:58.052Z,10.79
2019-05-21T00:32:58.477Z,10.8
2019-05-21T00:33:58.925Z,10.84
2019-05-21T00:34:59.327Z,10.8
2019-05-21T00:36:00.280Z,10.76
2019-05-21T00:37:00.922Z,10.82
2019-05-21T00:38:01.046Z,10.8
2019-05-21T00:39:01.460Z,10.87
2019-05-21T00:40:01.886Z,10.83
2019-05-21T00:41:02.587Z,10.82
2019-05-21T00:42:02.781Z,10.77
2019-05-21T00:43:02.905Z,10.79
2019-05-21T00:44:03.028Z,10.72
2019-05-21T00:45:03.728Z,10.69
2019-05-21T00:46:04.670Z,10.64
2019-05-21T00:47:05.086Z,10.68
2019-05-21T00:48:06.452Z,10.71
2019-05-21T00:49:05.868Z,10.77
2019-05-21T00:50:06.634Z,10.59
2019-05-21T00:51:07.049Z,10.68
2019-05-21T00:52:14.111Z,10.67
2019-05-21T00:53:08.244Z,10.58
2019-05-21T00:54:08.965Z,10.57
2019-05-21T00:55:09.379Z,10.57
2019-05-21T00:56:10.910Z,10.61
2019-05-21T00:57:11.511Z,10.53
2019-05-21T00:58:11.487Z,10.57
2019-05-21T00:59:12.495Z,10.48
2019-05-21T01:00:13.999Z,10.43
2019-05-21T01:01:13.401Z,10.58
2019-05-21T01:02:14.097Z,10.41
2019-05-21T01:03:14.503Z,10.49
2019-05-21T01:04:14.615Z,10.42
2019-05-21T01:05:15.338Z,10.48
2019-05-21T01:06:16.283Z,10.39
2019-05-21T01:07:17.028Z,10.45
2019-05-21T01:08:17.718Z,10.33
2019-05-21T01:09:18.757Z,10.39
2019-05-21T01:10:18.864Z,10.43
2019-05-21T01:11:18.981Z,10.39
2019-05-21T01:12:19.384Z,10.48
2019-05-21T01:13:20.093Z,10.48
2019-05-21T01:14:20.485Z,10.45
2019-05-21T01:15:21.197Z,10.36
2019-05-21T01:16:22.127Z,10.36
2019-05-21T01:17:22.530Z,10.38
2019-05-21T01:18:22.644Z,10.34
2019-05-21T01:19:22.756Z,10.34
2019-05-21T01:20:24.029Z,10.38
2019-05-21T01:21:24.438Z,10.34
2019-05-21T01:22:25.138Z,10.34
2019-05-21T01:23:25.552Z,10.3
2019-05-21T01:24:25.956Z,10.38
2019-05-21T01:25:26.339Z,10.31
2019-05-21T01:26:26.995Z,10.3
2019-05-21T01:27:27.403Z,10.28
2019-05-21T01:28:28.087Z,10.3
2019-05-21T01:29:29.088Z,10.28
2019-05-21T01:30:29.491Z,10.25
2019-05-21T01:31:29.919Z,10.28
2019-05-21T01:32:30.716Z,10.3
2019-05-21T01:33:31.138Z,10.23
2019-05-21T01:34:32.170Z,10.21
2019-05-21T01:35:32.323Z,10.31
2019-05-21T01:36:32.831Z,10.23
2019-05-21T01:37:33.511Z,10.33
2019-05-21T01:38:33.919Z,10.31
2019-05-21T01:39:34.336Z,10.34
2019-05-21T01:40:35.035Z,10.39
2019-05-21T01:41:35.737Z,10.42
2019-05-21T01:42:36.143Z,10.42
2019-05-21T01:43:37.114Z,10.46
2019-05-21T01:44:37.506Z,10.43
2019-05-21T01:45:37.897Z,10.39
2019-05-21T01:46:38.828Z,10.53
2019-05-21T01:47:39.530Z,10.41
2019-05-21T01:48:40.502Z,10.46
2019-05-21T01:49:40.623Z,10.59
2019-05-21T01:50:41.021Z,10.53
2019-05-21T01:51:41.438Z,10.53
2019-05-21T01:52:41.891Z,10.57
2019-05-21T01:53:42.288Z,10.48
2019-05-21T01:54:42.683Z,10.41
2019-05-21T01:55:43.116Z,10.46
2019-05-21T01:56:44.354Z,10.46
2019-05-21T01:57:44.749Z,10.43
2019-05-21T01:58:45.417Z,10.49
2019-05-21T01:59:45.552Z,10.39
2019-05-21T02:00:46.820Z,10.41
2019-05-21T02:01:47.512Z,10.43
2019-05-21T02:02:47.897Z,10.42
2019-05-21T02:03:48.622Z,10.48
2019-05-21T02:04:49.044Z,10.36
2019-05-21T02:05:49.750Z,10.51
2019-05-21T02:06:50.695Z,10.43
2019-05-21T02:07:51.442Z,10.43
2019-05-21T02:08:52.474Z,10.53
2019-05-21T02:09:52.896Z,10.57
2019-05-21T02:10:53.013Z,10.58
2019-05-21T02:11:54.061Z,10.51
2019-05-21T02:12:54.193Z,10.55
2019-05-21T02:13:54.660Z,10.57
2019-05-21T02:14:54.774Z,10.59
2019-05-21T02:15:56.091Z,10.51
2019-05-21T02:16:56.836Z,10.53
2019-05-21T02:17:56.945Z,10.53
2019-05-21T02:18:57.109Z,10.61
2019-05-21T02:19:58.183Z,10.49
2019-05-21T02:20:58.878Z,10.46
2019-05-21T02:21:59.268Z,10.53
2019-05-21T02:22:59.376Z,10.61
2019-05-21T02:24:00.073Z,10.62
2019-05-21T02:25:00.476Z,10.58
2019-05-21T02:26:01.204Z,10.62
2019-05-21T02:27:01.132Z,10.62
2019-05-21T02:28:01.840Z,10.62
2019-05-21T02:29:02.644Z,10.69
2019-05-21T02:30:05.247Z,10.72
2019-05-21T02:31:03.299Z,10.58
2019-05-21T02:32:04.042Z,10.64
2019-05-21T02:33:04.731Z,10.67
2019-05-21T02:34:05.135Z,10.76
2019-05-21T02:35:06.199Z,10.64
2019-05-21T02:36:06.174Z,10.59
2019-05-21T02:37:09.208Z,10.68
2019-05-21T02:38:07.213Z,10.72
2019-05-21T02:39:08.228Z,10.69
2019-05-21T02:40:08.661Z,10.68
2019-05-21T02:41:09.351Z,10.72
2019-05-21T02:42:09.736Z,10.68
2019-05-21T02:43:10.708Z,10.76
2019-05-21T02:44:11.108Z,10.71
2019-05-21T02:45:11.523Z,10.64
2019-05-21T02:46:12.248Z,10.72
2019-05-21T02:47:13.471Z,10.71
2019-05-21T02:48:14.214Z,10.59
2019-05-21T02:49:14.934Z,10.59
2019-05-21T02:50:15.932Z,10.69
2019-05-21T02:51:15.651Z,10.67
2019-05-21T02:52:16.051Z,10.76
2019-05-21T02:53:16.766Z,10.71
2019-05-21T02:54:17.191Z,10.79
2019-05-21T02:55:18.786Z,10.69
2019-05-21T02:56:19.497Z,10.69
2019-05-21T02:57:20.002Z,10.59
2019-05-21T02:58:20.428Z,10.64
2019-05-21T02:59:21.130Z,10.64
2019-05-21T03:00:21.836Z,10.59
2019-05-21T03:01:23.457Z,10.55
2019-05-21T03:02:23.176Z,10.68
2019-05-21T03:03:23.590Z,10.69
2019-05-21T03:04:24.310Z,10.68
2019-05-21T03:05:24.996Z,10.58
2019-05-21T03:06:25.995Z,10.68
2019-05-21T03:07:26.431Z,10.58
2019-05-21T03:08:26.747Z,10.61
2019-05-21T03:09:27.455Z,10.67
2019-05-21T03:10:27.859Z,10.59
2019-05-21T03:11:28.849Z,10.68
2019-05-21T03:12:29.265Z,10.64
2019-05-21T03:13:30.671Z,10.64
2019-05-21T03:14:31.372Z,10.65
2019-05-21T03:15:31.079Z,10.65
2019-05-21T03:16:32.091Z,10.59
2019-05-21T03:17:32.914Z,10.68
2019-05-21T03:18:33.044Z,10.68
2019-05-21T03:19:34.315Z,10.65
2019-05-21T03:20:34.429Z,10.64
2019-05-21T03:21:34.847Z,10.67
2019-05-21T03:22:35.837Z,10.67
2019-05-21T03:23:36.839Z,10.62
2019-05-21T03:24:37.262Z,10.69
2019-05-21T03:25:37.701Z,10.67
2019-05-21T03:26:38.702Z,10.58
2019-05-21T03:27:38.921Z,10.69
2019-05-21T03:28:39.641Z,10.64
2019-05-21T03:29:40.710Z,10.61
2019-05-21T03:30:41.421Z,10.59
2019-05-21T03:31:42.121Z,10.57
2019-05-21T03:32:42.701Z,10.65
2019-05-21T03:33:42.946Z,10.68
2019-05-21T03:34:43.951Z,10.59
2019-05-21T03:35:44.712Z,10.65
2019-05-21T03:36:44.768Z,10.62
2019-05-21T03:37:45.321Z,10.72
2019-05-21T03:38:46.359Z,10.59
2019-05-21T03:39:47.658Z,10.76
2019-05-21T03:40:48.118Z,10.59
2019-05-21T03:41:48.835Z,10.69
2019-05-21T03:42:49.526Z,10.62
2019-05-21T03:43:50.229Z,10.64
2019-05-21T03:45:08.526Z,10.67
2019-05-21T03:45:51.286Z,10.58
2019-05-21T03:46:52.565Z,10.65
2019-05-21T03:47:53.088Z,10.69
2019-05-21T03:48:54.114Z,10.67
2019-05-21T03:49:54.585Z,10.65
2019-05-21T03:50:55.280Z,10.69
2019-05-21T03:51:55.727Z,10.67
2019-05-21T03:52:56.435Z,10.65
2019-05-21T03:53:56.729Z,10.68
2019-05-21T03:54:57.137Z,10.71
2019-05-21T03:55:58.011Z,10.67
2019-05-21T03:56:58.728Z,10.67
2019-05-21T03:57:58.711Z,10.67
2019-05-21T03:58:59.710Z,10.57
2019-05-21T04:00:00.683Z,10.59
2019-05-21T04:01:01.115Z,10.59
2019-05-21T04:02:01.333Z,10.64
2019-05-21T04:03:02.080Z,10.58
2019-05-21T04:04:03.379Z,10.65
2019-05-21T04:05:03.672Z,10.71
2019-05-21T04:06:04.377Z,10.67
2019-05-21T04:07:05.097Z,10.71
2019-05-21T04:08:05.894Z,10.64
2019-05-21T04:09:06.617Z,10.69
2019-05-21T04:10:07.617Z,10.72
2019-05-21T04:11:08.351Z,10.76
2019-05-21T04:12:08.793Z,10.83
2019-05-21T04:13:10.051Z,10.77
2019-05-21T04:14:10.052Z,10.77
2019-05-21T04:15:10.567Z,10.79
2019-05-21T04:16:10.926Z,10.89
2019-05-21T04:17:11.688Z,10.8
2019-05-21T04:18:12.512Z,10.89
2019-05-21T04:19:12.675Z,10.83
2019-05-21T04:20:13.117Z,10.84
2019-05-21T04:21:13.249Z,10.79
2019-05-21T04:22:13.364Z,10.86
2019-05-21T04:23:13.778Z,10.87
2019-05-21T04:24:15.401Z,10.89
2019-05-21T04:25:14.097Z,10.86
2019-05-21T04:26:14.536Z,10.83
2019-05-21T04:27:14.968Z,10.84
2019-05-21T04:28:15.854Z,10.84
2019-05-21T04:29:16.136Z,10.92
2019-05-21T04:30:17.257Z,10.86
2019-05-21T04:31:16.988Z,10.84
2019-05-21T04:32:17.999Z,10.87
2019-05-21T04:33:19.268Z,10.83
2019-05-21T04:34:19.681Z,10.86
2019-05-21T04:35:20.658Z,10.86
2019-05-21T04:36:21.696Z,10.84
2019-05-21T04:37:23.460Z,10.8
2019-05-21T04:38:23.697Z,10.87
2019-05-21T04:39:24.838Z,10.86
2019-05-21T04:40:24.711Z,10.94
2019-05-21T04:41:25.465Z,10.82
2019-05-21T04:42:26.173Z,10.87
2019-05-21T04:43:27.146Z,10.8
2019-05-21T04:44:27.575Z,10.84
2019-05-21T04:45:28.301Z,10.8
2019-05-21T04:46:28.742Z,10.84
2019-05-21T04:47:29.162Z,10.79
2019-05-21T04:48:29.571Z,10.8
2019-05-21T04:49:30.311Z,10.77
2019-05-21T04:50:31.027Z,10.83
2019-05-21T04:51:31.843Z,10.8
2019-05-21T04:52:32.133Z,10.86
2019-05-21T04:53:32.822Z,10.84
2019-05-21T04:54:32.953Z,10.83
2019-05-21T04:55:33.951Z,10.77
2019-05-21T04:56:34.683Z,10.77
2019-05-21T04:57:37.736Z,10.84
2019-05-21T04:58:36.104Z,10.82
2019-05-21T04:59:36.092Z,10.8
2019-05-21T05:00:36.802Z,10.82
2019-05-21T05:01:37.090Z,10.86
2019-05-21T05:02:37.513Z,10.89
2019-05-21T05:03:37.814Z,10.83
2019-05-21T05:04:38.523Z,10.87
2019-05-21T05:05:39.232Z,10.86
2019-05-21T05:06:39.659Z,10.89
2019-05-21T05:07:40.693Z,10.86
2019-05-21T05:08:40.646Z,10.84
2019-05-21T05:09:41.036Z,10.9
2019-05-21T05:10:41.163Z,10.84
2019-05-21T05:11:41.606Z,10.92
2019-05-21T05:12:42.390Z,10.84
2019-05-21T05:13:42.509Z,10.95
2019-05-21T05:14:43.195Z,10.92
2019-05-21T05:15:43.939Z,10.92
2019-05-21T05:16:44.647Z,10.92
2019-05-21T05:17:45.368Z,10.89
2019-05-21T05:18:45.607Z,10.95
2019-05-21T05:19:46.353Z,10.95
2019-05-21T05:20:46.474Z,11.01
2019-05-21T05:21:46.883Z,10.97
2019-05-21T05:22:47.325Z,11.02
2019-05-21T05:23:47.731Z,10.98
2019-05-21T05:24:47.965Z,10.9
2019-05-21T05:25:48.669Z,11.01
2019-05-21T05:26:49.062Z,11.01
2019-05-21T05:27:49.199Z,11.04
2019-05-21T05:28:49.711Z,11.02
2019-05-21T05:29:49.843Z,10.97
2019-05-21T05:30:50.267Z,10.92
2019-05-21T05:31:51.264Z,10.98
2019-05-21T05:32:51.678Z,10.97
2019-05-21T05:33:52.368Z,11.07
2019-05-21T05:34:52.771Z,11.01
2019-05-21T05:35:52.888Z,11.04
2019-05-21T05:36:53.574Z,11.15
2019-05-21T05:37:55.275Z,11.1
2019-05-21T05:38:54.956Z,11.08
2019-05-21T05:39:55.376Z,11.1
2019-05-21T05:40:56.081Z,11.13
2019-05-21T05:41:56.940Z,11.1
2019-05-21T05:42:57.355Z,11.05
2019-05-21T05:43:58.635Z,11.1
2019-05-21T05:44:59.033Z,11.1
2019-05-21T05:46:00.024Z,11.13
2019-05-21T05:47:00.714Z,11.07
2019-05-21T05:48:01.110Z,11.1
2019-05-21T05:49:02.573Z,11.07
2019-05-21T05:50:03.050Z,11.07
2019-05-21T05:51:03.040Z,11.18
2019-05-21T05:52:03.352Z,11.12
2019-05-21T05:53:04.412Z,11.1
2019-05-21T05:54:08.198Z,11.15
2019-05-21T05:55:05.370Z,11.12
2019-05-21T05:56:06.463Z,11.05
2019-05-21T05:57:06.667Z,11.13
2019-05-21T05:58:07.424Z,11.05
2019-05-21T05:59:07.947Z,11.18
2019-05-21T06:00:08.085Z,11.18
2019-05-21T06:01:09.398Z,11.15
2019-05-21T06:02:09.950Z,11.16
2019-05-21T06:03:10.385Z,11.16
2019-05-21T06:04:11.153Z,11.1
2019-05-21T06:05:12.461Z,11.08
2019-05-21T06:06:13.574Z,11.13
2019-05-21T06:07:12.261Z,11.12
2019-05-21T06:08:12.372Z,11.16
2019-05-21T06:09:13.193Z,11.1
2019-05-21T06:10:13.610Z,11.12
2019-05-21T06:11:15.188Z,11.16
2019-05-21T06:12:15.649Z,11.22
2019-05-21T06:13:16.057Z,11.3
2019-05-21T06:14:17.352Z,11.26
2019-05-21T06:15:17.564Z,11.2
2019-05-21T06:16:19.026Z,11.16
2019-05-21T06:17:18.031Z,11.13
2019-05-21T06:18:19.023Z,11.2
2019-05-21T06:19:19.253Z,11.2
2019-05-21T06:20:19.650Z,11.2
2019-05-21T06:21:20.387Z,11.22
2019-05-21T06:22:21.398Z,11.2
2019-05-21T06:23:21.421Z,11.13
2019-05-21T06:24:21.335Z,11.15
2019-05-21T06:25:22.027Z,11.08
2019-05-21T06:26:22.483Z,11.1
2019-05-21T06:27:23.191Z,11.08
2019-05-21T06:28:23.602Z,11.1
2019-05-21T06:29:24.888Z,11.16
2019-05-21T06:30:25.335Z,11.15
2019-05-21T06:31:27.223Z,11.15
2019-05-21T06:32:28.594Z,11.13
2019-05-21T06:33:28.584Z,11.15
2019-05-21T06:34:30.487Z,11.13
2019-05-21T06:35:29.615Z,11.07
2019-05-21T06:36:30.646Z,11.12
2019-05-21T06:37:30.784Z,11.02
2019-05-21T06:38:31.466Z,11.05
2019-05-21T06:39:32.693Z,11.13
2019-05-21T06:40:33.403Z,11.07
2019-05-21T06:41:33.321Z,11.16
2019-05-21T06:42:33.444Z,11.2
2019-05-21T06:43:34.138Z,11.13
2019-05-21T06:44:34.552Z,11.2
2019-05-21T06:45:35.136Z,11.26
2019-05-21T06:46:35.612Z,11.13
2019-05-21T06:47:36.614Z,11.1
2019-05-21T06:48:37.420Z,11.15
2019-05-21T06:49:37.867Z,11.15
2019-05-21T06:50:38.959Z,11.13
2019-05-21T06:51:39.258Z,11.15
2019-05-21T06:52:40.268Z,11.1
2019-05-21T06:53:41.912Z,11.2
2019-05-21T06:54:41.074Z,11.12
2019-05-21T06:55:41.799Z,11.13
2019-05-21T06:56:42.785Z,11.12
2019-05-21T06:57:43.477Z,11.13
2019-05-21T06:58:43.911Z,11.15
2019-05-21T06:59:44.761Z,11.12
2019-05-21T07:00:45.184Z,11.18
2019-05-21T07:01:45.868Z,11.13
2019-05-21T07:02:48.484Z,11.2
2019-05-21T07:03:48.942Z,11.22
2019-05-21T07:04:48.292Z,11.22
2019-05-21T07:06:05.008Z,11.18
2019-05-21T07:06:50.668Z,11.13
2019-05-21T07:07:52.043Z,11.07
2019-05-21T07:08:50.686Z,11.15
2019-05-21T07:09:51.912Z,11.19
2019-05-21T07:10:52.089Z,11.12
2019-05-21T07:11:52.518Z,11.19
2019-05-21T07:12:52.633Z,11.19
2019-05-21T07:13:53.345Z,11.13
2019-05-21T07:14:54.086Z,11.02
2019-05-21T07:15:54.649Z,11.16
2019-05-21T07:16:54.364Z,11.15
2019-05-21T07:17:54.801Z,11.13
2019-05-21T07:18:55.728Z,11.08
2019-05-21T07:19:55.949Z,11.1
2019-05-21T07:20:56.076Z,11.05
2019-05-21T07:22:13.483Z,11.05
2019-05-21T07:22:57.733Z,11.13
2019-05-21T07:23:57.411Z,11.1
2019-05-21T07:24:57.536Z,11.12
2019-05-21T07:25:57.658Z,11.15
2019-05-21T07:26:57.841Z,11.12
2019-05-21T07:27:58.249Z,11.19
2019-05-21T07:29:02.322Z,11.2
2019-05-21T07:29:59.948Z,11.1
2019-05-21T07:31:00.372Z,11.13
2019-05-21T07:32:01.384Z,11.1
2019-05-21T07:33:02.407Z,11.13
2019-05-21T07:34:02.207Z,11.15
2019-05-21T07:35:02.938Z,11.15
2019-05-21T07:36:03.657Z,11.15
2019-05-21T07:37:03.654Z,11.13
2019-05-21T07:38:04.831Z,11.12
2019-05-21T07:39:04.547Z,11.15
2019-05-21T07:40:05.079Z,11.16
2019-05-21T07:41:05.796Z,11.13
2019-05-21T07:42:05.960Z,11.08
2019-05-21T07:43:06.098Z,11.16
2019-05-21T07:44:06.525Z,11.2
2019-05-21T07:45:06.943Z,11.18
2019-05-21T07:46:08.963Z,11.18
2019-05-21T07:47:09.778Z,11.22
2019-05-21T07:48:08.857Z,11.19
2019-05-21T07:49:09.296Z,11.2
2019-05-21T07:50:09.981Z,11.22
2019-05-21T07:51:10.437Z,11.26
2019-05-21T07:52:10.863Z,11.25
2019-05-21T07:53:11.284Z,11.3
2019-05-21T07:54:12.296Z,11.35
2019-05-21T07:55:12.714Z,11.34
2019-05-21T07:56:13.128Z,11.41
2019-05-21T07:57:13.551Z,11.37
2019-05-21T07:58:14.596Z,11.35
2019-05-21T07:59:15.006Z,11.27
2019-05-21T08:00:16.056Z,11.37
2019-05-21T08:01:17.073Z,11.41
2019-05-21T08:02:17.762Z,11.37
2019-05-21T08:03:19.041Z,11.45
2019-05-21T08:04:19.458Z,11.48
2019-05-21T08:05:19.946Z,11.4
2019-05-21T08:06:21.301Z,11.51
2019-05-21T08:07:20.748Z,11.53
2019-05-21T08:08:21.477Z,11.51
2019-05-21T08:09:21.768Z,11.51
2019-05-21T08:10:22.710Z,11.56
2019-05-21T08:11:22.824Z,11.55
2019-05-21T08:12:43.351Z,11.56
2019-05-21T08:13:23.757Z,11.56
2019-05-21T08:14:24.178Z,11.58
2019-05-21T08:15:25.907Z,11.59
2019-05-21T08:16:25.884Z,11.52
2019-05-21T08:17:26.625Z,11.59
2019-05-21T08:18:27.318Z,11.53
2019-05-21T08:19:31.742Z,11.59
2019-05-21T08:20:28.560Z,11.53
2019-05-21T08:21:28.686Z,11.59
2019-05-21T08:22:29.378Z,11.53
2019-05-21T08:23:29.789Z,11.6
2019-05-21T08:24:30.208Z,11.59
2019-05-21T08:25:30.671Z,11.58
2019-05-21T08:26:31.697Z,11.58
2019-05-21T08:27:31.546Z,11.6
2019-05-21T08:28:32.528Z,11.6
2019-05-21T08:29:32.944Z,11.6
2019-05-21T08:30:33.388Z,11.59
2019-05-21T08:31:34.155Z,11.56
2019-05-21T08:32:34.862Z,11.55
2019-05-21T08:33:34.982Z,11.53
2019-05-21T08:34:35.104Z,11.51
2019-05-21T08:35:36.478Z,11.52
2019-05-21T08:36:39.499Z,11.58
2019-05-21T08:37:38.674Z,11.58
2019-05-21T08:38:38.416Z,11.56
2019-05-21T08:39:38.556Z,11.59
2019-05-21T08:40:39.533Z,11.63
2019-05-21T08:41:40.533Z,11.59
2019-05-21T08:42:40.541Z,11.58
2019-05-21T08:43:41.224Z,11.59
2019-05-21T08:44:42.238Z,11.59
2019-05-21T08:45:42.675Z,11.67
2019-05-21T08:46:44.375Z,11.59
2019-05-21T08:47:46.166Z,11.56
2019-05-21T08:48:44.610Z,11.55
2019-05-21T08:49:45.003Z,11.44
2019-05-21T08:50:45.522Z,11.38
2019-05-21T08:51:45.659Z,11.4
2019-05-21T08:52:48.367Z,11.26
2019-05-21T08:53:47.112Z,11.37
2019-05-21T08:54:47.819Z,11.38
2019-05-21T08:55:47.402Z,11.35
2019-05-21T08:56:47.888Z,11.31
2019-05-21T08:58:07.690Z,11.33
2019-05-21T08:58:49.117Z,11.4
2019-05-21T08:59:49.547Z,11.33
2019-05-21T09:00:50.858Z,11.41
2019-05-21T09:01:51.864Z,11.33
2019-05-21T09:02:52.104Z,11.4
2019-05-21T09:03:52.524Z,11.35
2019-05-21T09:04:55.458Z,11.31
2019-05-21T09:05:53.013Z,11.26
2019-05-21T09:06:56.315Z,11.3
2019-05-21T09:07:59.758Z,11.33
2019-05-21T09:08:54.649Z,11.34
2019-05-21T09:09:57.138Z,11.31
2019-05-21T09:10:55.333Z,11.25
2019-05-21T09:11:56.340Z,11.3
2019-05-21T09:12:56.745Z,11.3
2019-05-21T09:13:56.949Z,11.41
2019-05-21T09:14:58.086Z,11.34
2019-05-21T09:15:59.127Z,11.34
2019-05-21T09:16:58.728Z,11.35
2019-05-21T09:18:01.830Z,11.26
2019-05-21T09:18:59.479Z,11.34
2019-05-21T09:20:00.208Z,11.44
2019-05-21T09:21:00.397Z,11.38
2019-05-21T09:22:01.090Z,11.41
2019-05-21T09:23:02.087Z,11.4
2019-05-21T09:24:03.452Z,11.52
2019-05-21T09:25:04.801Z,11.43
2019-05-21T09:26:04.972Z,11.48
2019-05-21T09:27:05.682Z,11.48
2019-05-21T09:28:06.104Z,11.45
2019-05-21T09:29:06.865Z,11.41
2019-05-21T09:30:07.571Z,11.49
2019-05-21T09:31:10.255Z,11.58
2019-05-21T09:32:08.925Z,11.59
2019-05-21T09:33:09.360Z,11.43
2019-05-21T09:34:09.502Z,11.49
2019-05-21T09:35:09.956Z,11.52
2019-05-21T09:36:12.975Z,11.58
2019-05-21T09:37:25.553Z,11.44
2019-05-21T09:38:12.243Z,11.48
2019-05-21T09:39:14.729Z,11.48
2019-05-21T09:40:15.166Z,11.49
2019-05-21T09:41:16.237Z,11.56
2019-05-21T09:42:14.462Z,11.45
2019-05-21T09:43:14.911Z,11.45
2019-05-21T09:44:15.329Z,11.52
2019-05-21T09:45:16.039Z,11.62
2019-05-21T09:46:16.463Z,11.6
2019-05-21T09:47:19.528Z,11.6
2019-05-21T09:48:17.958Z,11.59
2019-05-21T09:49:17.773Z,11.56
2019-05-21T09:50:18.187Z,11.55
2019-05-21T09:51:25.532Z,11.56
2019-05-21T09:52:18.953Z,11.59
2019-05-21T09:53:19.963Z,11.59
2019-05-21T09:54:23.134Z,11.59
2019-05-21T09:55:22.151Z,11.56
2019-05-21T09:56:22.152Z,11.6
2019-05-21T09:57:22.839Z,11.6
2019-05-21T09:58:23.270Z,11.59
2019-05-21T09:59:25.601Z,11.63
2019-05-21T10:00:25.636Z,11.48
2019-05-21T10:01:25.957Z,11.53
2019-05-21T10:02:26.226Z,11.55
2019-05-21T10:03:26.730Z,11.6
2019-05-21T10:04:26.847Z,11.58
2019-05-21T10:05:27.322Z,11.51
2019-05-21T10:06:28.027Z,11.56
2019-05-21T10:07:46.740Z,11.55
2019-05-21T10:08:29.209Z,11.53
2019-05-21T10:09:29.599Z,11.58
2019-05-21T10:10:30.013Z,11.59
2019-05-21T10:11:30.932Z,11.6
2019-05-21T10:12:32.088Z,11.59
2019-05-21T10:13:32.089Z,11.58
2019-05-21T10:14:34.922Z,11.59
2019-05-21T10:15:32.349Z,11.63
2019-05-21T10:16:33.076Z,11.67
2019-05-21T10:17:33.858Z,11.63
2019-05-21T10:18:34.192Z,11.65
2019-05-21T10:19:34.618Z,11.65
2019-05-21T10:20:35.615Z,11.67
2019-05-21T10:21:35.373Z,11.65
2019-05-21T10:22:36.552Z,11.59
2019-05-21T10:23:35.965Z,11.56
2019-05-21T10:24:38.103Z,11.59
2019-05-21T10:25:38.580Z,11.6
2019-05-21T10:26:40.163Z,11.59
2019-05-21T10:27:41.402Z,11.65
2019-05-21T10:28:40.014Z,11.6
2019-05-21T10:29:41.044Z,11.59
2019-05-21T10:30:41.791Z,11.65
2019-05-21T10:31:41.752Z,11.65
2019-05-21T10:32:43.696Z,11.65
2019-05-21T10:33:44.332Z,11.6
2019-05-21T10:34:43.401Z,11.63
2019-05-21T10:35:43.840Z,11.63
2019-05-21T10:36:43.983Z,11.7
2019-05-21T10:37:59.627Z,11.65
2019-05-21T10:38:46.284Z,11.76
2019-05-21T10:39:47.061Z,11.7
2019-05-21T10:40:45.689Z,11.77
2019-05-21T10:41:47.720Z,11.78
2019-05-21T10:42:47.268Z,11.78
2019-05-21T10:43:48.106Z,11.76
2019-05-21T10:44:48.661Z,11.86
2019-05-21T10:45:50.107Z,11.85
2019-05-21T10:46:49.838Z,11.89
2019-05-21T10:47:50.955Z,11.83
2019-05-21T10:48:51.949Z,11.83
2019-05-21T10:49:52.966Z,11.8
2019-05-21T10:50:54.864Z,11.81
2019-05-21T10:51:54.258Z,11.88
2019-05-21T10:52:54.881Z,11.95
2019-05-21T10:53:55.606Z,12
2019-05-21T10:54:58.259Z,12
2019-05-21T10:55:57.532Z,12.02
2019-05-21T10:56:59.367Z,12.03
2019-05-21T10:57:58.389Z,12.02
2019-05-21T10:58:59.468Z,12.03
2019-05-21T11:00:01.385Z,11.97
2019-05-21T11:01:01.056Z,11.96
2019-05-21T11:02:01.213Z,12.03
2019-05-21T11:03:01.465Z,12
2019-05-21T11:04:02.472Z,12.03
2019-05-21T11:05:03.183Z,12.1
2019-05-21T11:06:15.732Z,12.07
2019-05-21T11:07:04.896Z,12.17
2019-05-21T11:08:30.082Z,12.07
2019-05-21T11:09:05.458Z,12.18
2019-05-21T11:10:07.833Z,12.15
2019-05-21T11:11:06.591Z,12.1
2019-05-21T11:12:07.971Z,12.2
2019-05-21T11:13:08.694Z,12.08
2019-05-21T11:14:09.972Z,12.23
2019-05-21T11:15:10.396Z,12.2
2019-05-21T11:16:12.094Z,12.2
2019-05-21T11:17:12.246Z,12.18
2019-05-21T11:18:17.091Z,12.29
2019-05-21T11:19:12.537Z,12.3
2019-05-21T11:20:12.671Z,12.26
2019-05-21T11:21:13.105Z,12.28
2019-05-21T11:22:13.616Z,12.23
2019-05-21T11:23:14.365Z,12.25
2019-05-21T11:24:15.259Z,12.15
2019-05-21T11:25:15.286Z,12.25
2019-05-21T11:26:16.285Z,12.32
2019-05-21T11:27:16.411Z,12.15
2019-05-21T11:28:16.813Z,12.29
2019-05-21T11:29:18.007Z,12.25
2019-05-21T11:30:18.598Z,12.32
2019-05-21T11:31:19.598Z,12.21
2019-05-21T11:32:20.272Z,12.2
2019-05-21T11:33:20.405Z,12.15
2019-05-21T11:34:21.115Z,12.23
2019-05-21T11:35:21.843Z,12.18
2019-05-21T11:36:22.169Z,12.21
2019-05-21T11:37:22.288Z,12.07
2019-05-21T11:38:31.760Z,12.15
2019-05-21T11:39:23.734Z,12.15
2019-05-21T11:40:25.529Z,12.28
2019-05-21T11:41:24.658Z,12.23
2019-05-21T11:42:28.040Z,12.4
2019-05-21T11:43:25.949Z,12.36
2019-05-21T11:44:26.450Z,12.4
2019-05-21T11:45:39.085Z,12.48
2019-05-21T11:46:27.293Z,12.55
2019-05-21T11:47:28.991Z,12.5
2019-05-21T11:48:28.470Z,12.5
2019-05-21T11:49:29.757Z,12.4
2019-05-21T11:50:32.692Z,12.45
2019-05-21T11:51:30.882Z,12.44
2019-05-21T11:52:31.110Z,12.4
2019-05-21T11:53:32.729Z,12.48
2019-05-21T11:54:32.144Z,12.54
2019-05-21T11:55:32.560Z,12.4
2019-05-21T11:56:36.563Z,12.39
2019-05-21T11:57:35.573Z,12.43
2019-05-21T11:58:40.975Z,12.4
2019-05-21T11:59:35.104Z,12.37
2019-05-21T12:00:35.811Z,12.33
2019-05-21T12:01:36.510Z,12.43
2019-05-21T12:02:37.130Z,12.37
2019-05-21T12:03:39.365Z,12.37
2019-05-21T12:04:39.142Z,12.4
2019-05-21T12:05:39.095Z,12.35
2019-05-21T12:06:39.518Z,12.37
2019-05-21T12:07:39.981Z,12.36
2019-05-21T12:08:57.670Z,12.43
2019-05-21T12:09:41.321Z,12.37
2019-05-21T12:10:42.011Z,12.29
2019-05-21T12:11:42.128Z,12.33
2019-05-21T12:12:43.254Z,12.21
2019-05-21T12:13:44.220Z,12.37
2019-05-21T12:14:44.378Z,12.36
2019-05-21T12:15:44.806Z,12.37
2019-05-21T12:16:45.489Z,12.44
2019-05-21T12:17:46.550Z,12.45
2019-05-21T12:18:48.869Z,12.43
2019-05-21T12:19:47.168Z,12.48
2019-05-21T12:20:47.616Z,12.33
2019-05-21T12:21:48.618Z,12.35
2019-05-21T12:22:49.131Z,12.43
2019-05-21T12:23:50.306Z,12.51
2019-05-21T12:24:50.022Z,12.44
2019-05-21T12:25:51.010Z,12.54
2019-05-21T12:26:51.715Z,12.58
2019-05-21T12:27:52.130Z,12.57
2019-05-21T12:28:52.614Z,12.65
2019-05-21T12:29:55.632Z,12.63
2019-05-21T12:30:54.105Z,12.69
2019-05-21T12:31:54.803Z,12.81
2019-05-21T12:32:55.197Z,12.8
2019-05-21T12:33:56.018Z,12.76
2019-05-21T12:34:56.731Z,12.76
2019-05-21T12:35:57.838Z,12.91
2019-05-21T12:36:58.822Z,12.88
2019-05-21T12:37:59.501Z,12.8
2019-05-21T12:39:14.765Z,12.63
2019-05-21T12:40:00.645Z,12.61
2019-05-21T12:41:00.774Z,12.66
2019-05-21T12:42:02.372Z,12.57
2019-05-21T12:43:02.680Z,12.51
2019-05-21T12:44:02.815Z,12.57
2019-05-21T12:45:03.830Z,12.58
2019-05-21T12:46:04.116Z,12.54
2019-05-21T12:47:04.546Z,12.61
2019-05-21T12:48:05.082Z,12.58
2019-05-21T12:49:05.501Z,12.55
2019-05-21T12:50:06.509Z,12.54
2019-05-21T12:51:06.820Z,12.63
2019-05-21T12:52:07.539Z,12.63
2019-05-21T12:53:08.150Z,12.54
2019-05-21T12:54:08.940Z,12.63
2019-05-21T12:55:09.639Z,12.65
2019-05-21T12:56:10.502Z,12.65
2019-05-21T12:57:10.901Z,12.8
2019-05-21T12:58:11.026Z,12.78
2019-05-21T12:59:11.496Z,12.75
2019-05-21T13:00:11.995Z,12.87
2019-05-21T13:01:12.515Z,12.87
2019-05-21T13:02:12.930Z,12.66
2019-05-21T13:03:13.217Z,12.69